createdAt,value
2019-04-29T00:00:25.601Z,1016.67
2019-04-29T00:01:01.207Z,1016.69
2019-04-29T00:01:36.308Z,1016.68
2019-04-29T00:02:11.635Z,1016.69
2019-04-29T00:02:47.195Z,1016.70
2019-04-29T00:03:22.394Z,1016.72
2019-04-29T00:03:57.675Z,1016.72
2019-04-29T00:04:32.894Z,1016.75
2019-04-29T00:05:08.378Z,1016.69
2019-04-29T00:05:43.862Z,1016.75
2019-04-29T00:06:19.242Z,1016.74
2019-04-29T00:06:54.589Z,1016.79
2019-04-29T00:07:29.771Z,1016.75
2019-04-29T00:08:05.083Z,1016.77
2019-04-29T00:08:40.347Z,1016.78
2019-04-29T00:09:16.044Z,1016.78
2019-04-29T00:09:51.718Z,1016.78
2019-04-29T00:10:27.030Z,1016.77
2019-04-29T00:11:02.314Z,1016.79
2019-04-29T00:11:37.644Z,1016.76
2019-04-29T00:12:13.329Z,1016.79
2019-04-29T00:12:48.756Z,1016.76
2019-04-29T00:13:24.232Z,1016.77
2019-04-29T00:13:59.536Z,1016.72
2019-04-29T00:14:34.897Z,1016.76
2019-04-29T00:15:10.315Z,1016.73
2019-04-29T00:15:45.492Z,1016.73
2019-04-29T00:16:20.958Z,1016.75
2019-04-29T00:16:56.556Z,1016.76
2019-04-29T00:17:32.067Z,1016.78
2019-04-29T00:18:07.333Z,1016.80
2019-04-29T00:18:42.551Z,1016.75
2019-04-29T00:19:18.005Z,1016.77
2019-04-29T00:19:53.334Z,1016.75
2019-04-29T00:20:28.732Z,1016.76
2019-04-29T00:21:04.329Z,1016.77
2019-04-29T00:21:39.517Z,1016.76
2019-04-29T00:22:14.948Z,1016.74
2019-04-29T00:22:50.318Z,1016.74
2019-04-29T00:23:25.611Z,1016.74
2019-04-29T00:24:03.954Z,1016.76
2019-04-29T00:24:36.135Z,1016.75
2019-04-29T00:25:11.304Z,1016.73
2019-04-29T00:25:46.800Z,1016.78
2019-04-29T00:26:22.162Z,1016.77
2019-04-29T00:26:57.283Z,1016.78
2019-04-29T00:27:32.650Z,1016.80
2019-04-29T00:28:08.050Z,1016.75
2019-04-29T00:28:43.405Z,1016.78
2019-04-29T00:29:18.817Z,1016.81
2019-04-29T00:29:53.893Z,1016.83
2019-04-29T00:30:29.088Z,1016.81
2019-04-29T00:31:04.255Z,1016.79
2019-04-29T00:31:39.795Z,1016.79
2019-04-29T00:32:15.159Z,1016.84
2019-04-29T00:32:50.464Z,1016.80
2019-04-29T00:33:25.629Z,1016.77
2019-04-29T00:34:01.141Z,1016.77
2019-04-29T00:34:36.302Z,1016.78
2019-04-29T00:35:11.635Z,1016.79
2019-04-29T00:35:46.991Z,1016.79
2019-04-29T00:36:22.417Z,1016.78
2019-04-29T00:36:57.423Z,1016.81
2019-04-29T00:37:32.524Z,1016.81
2019-04-29T00:38:07.791Z,1016.83
2019-04-29T00:38:43.178Z,1016.82
2019-04-29T00:39:18.453Z,1016.79
2019-04-29T00:39:53.848Z,1016.81
2019-04-29T00:40:28.925Z,1016.82
2019-04-29T00:41:04.043Z,1016.78
2019-04-29T00:41:39.544Z,1016.78
2019-04-29T00:42:14.864Z,1016.81
2019-04-29T00:42:50.218Z,1016.82
2019-04-29T00:43:25.630Z,1016.79
2019-04-29T00:44:01.171Z,1016.80
2019-04-29T00:44:36.589Z,1016.79
2019-04-29T00:45:11.886Z,1016.77
2019-04-29T00:45:47.102Z,1016.80
2019-04-29T00:46:22.197Z,1016.79
2019-04-29T00:46:57.314Z,1016.82
2019-04-29T00:47:32.686Z,1016.79
2019-04-29T00:48:08.089Z,1016.79
2019-04-29T00:48:43.279Z,1016.79
2019-04-29T00:49:18.587Z,1016.79
2019-04-29T00:49:53.755Z,1016.79
2019-04-29T00:50:28.956Z,1016.79
2019-04-29T00:51:04.323Z,1016.81
2019-04-29T00:51:39.562Z,1016.78
2019-04-29T00:52:14.853Z,1016.79
2019-04-29T00:52:50.066Z,1016.77
2019-04-29T00:53:25.135Z,1016.80
2019-04-29T00:54:00.294Z,1016.78
2019-04-29T00:54:35.699Z,1016.79
2019-04-29T00:55:10.911Z,1016.79
2019-04-29T00:55:45.998Z,1016.82
2019-04-29T00:56:21.197Z,1016.79
2019-04-29T00:56:56.390Z,1016.80
2019-04-29T00:57:31.823Z,1016.80
2019-04-29T00:58:07.098Z,1016.78
2019-04-29T00:58:42.524Z,1016.80
2019-04-29T00:59:17.804Z,1016.80
2019-04-29T00:59:53.011Z,1016.85
2019-04-29T01:00:28.280Z,1016.85
2019-04-29T01:01:03.527Z,1016.83
2019-04-29T01:01:38.737Z,1016.82
2019-04-29T01:02:14.444Z,1016.81
2019-04-29T01:02:49.718Z,1016.83
2019-04-29T01:03:25.015Z,1016.87
2019-04-29T01:04:00.583Z,1016.86
2019-04-29T01:04:35.824Z,1016.83
2019-04-29T01:05:11.314Z,1016.83
2019-04-29T01:05:46.839Z,1016.83
2019-04-29T01:06:22.122Z,1016.85
2019-04-29T01:06:57.567Z,1016.85
2019-04-29T01:07:32.837Z,1016.82
2019-04-29T01:08:08.057Z,1016.84
2019-04-29T01:08:43.216Z,1016.82
2019-04-29T01:09:18.616Z,1016.83
2019-04-29T01:09:54.205Z,1016.83
2019-04-29T01:10:29.612Z,1016.85
2019-04-29T01:11:05.095Z,1016.87
2019-04-29T01:11:40.526Z,1016.83
2019-04-29T01:12:15.826Z,1016.84
2019-04-29T01:12:51.123Z,1016.82
2019-04-29T01:13:26.803Z,1016.84
2019-04-29T01:14:02.307Z,1016.83
2019-04-29T01:14:37.680Z,1016.80
2019-04-29T01:15:12.987Z,1016.81
2019-04-29T01:15:48.347Z,1016.83
2019-04-29T01:16:23.552Z,1016.81
2019-04-29T01:16:59.136Z,1016.84
2019-04-29T01:17:34.364Z,1016.81
2019-04-29T01:18:09.939Z,1016.83
2019-04-29T01:18:45.237Z,1016.84
2019-04-29T01:19:20.631Z,1016.83
2019-04-29T01:19:55.939Z,1016.86
2019-04-29T01:20:31.212Z,1016.82
2019-04-29T01:21:06.609Z,1016.83
2019-04-29T01:21:41.816Z,1016.83
2019-04-29T01:22:17.008Z,1016.86
2019-04-29T01:22:52.372Z,1016.85
2019-04-29T01:23:27.471Z,1016.85
2019-04-29T01:24:02.833Z,1016.83
2019-04-29T01:24:38.235Z,1016.83
2019-04-29T01:25:13.412Z,1016.82
2019-04-29T01:25:48.822Z,1016.82
2019-04-29T01:26:24.139Z,1016.84
2019-04-29T01:26:59.641Z,1016.82
2019-04-29T01:27:35.213Z,1016.83
2019-04-29T01:28:10.609Z,1016.82
2019-04-29T01:28:45.579Z,1016.84
2019-04-29T01:29:21.082Z,1016.86
2019-04-29T01:29:56.366Z,1016.83
2019-04-29T01:30:31.987Z,1016.81
2019-04-29T01:31:07.354Z,1016.86
2019-04-29T01:31:42.691Z,1016.83
2019-04-29T01:32:18.390Z,1016.84
2019-04-29T01:32:53.920Z,1016.84
2019-04-29T01:33:29.298Z,1016.82
2019-04-29T01:34:04.599Z,1016.82
2019-04-29T01:34:40.082Z,1016.83
2019-04-29T01:35:15.284Z,1016.79
2019-04-29T01:35:50.664Z,1016.76
2019-04-29T01:36:25.754Z,1016.80
2019-04-29T01:37:01.144Z,1016.79
2019-04-29T01:37:36.466Z,1016.80
2019-04-29T01:38:11.736Z,1016.83
2019-04-29T01:38:48.687Z,1016.79
2019-04-29T01:39:22.432Z,1016.79
2019-04-29T01:39:57.823Z,1016.81
2019-04-29T01:40:32.806Z,1016.79
2019-04-29T01:41:08.025Z,1016.78
2019-04-29T01:41:43.432Z,1016.80
2019-04-29T01:42:18.747Z,1016.82
2019-04-29T01:42:57.048Z,1016.77
2019-04-29T01:43:32.642Z,1016.78
2019-04-29T01:44:07.713Z,1016.76
2019-04-29T01:44:43.010Z,1016.80
2019-04-29T01:45:18.796Z,1016.82
2019-04-29T01:45:53.998Z,1016.81
2019-04-29T01:46:29.268Z,1016.78
2019-04-29T01:47:04.591Z,1016.79
2019-04-29T01:47:39.850Z,1016.81
2019-04-29T01:48:15.363Z,1016.87
2019-04-29T01:48:50.859Z,1016.80
2019-04-29T01:49:26.311Z,1016.83
2019-04-29T01:50:01.677Z,1016.88
2019-04-29T01:50:36.894Z,1016.85
2019-04-29T01:51:12.276Z,1016.85
2019-04-29T01:51:47.799Z,1016.86
2019-04-29T01:52:23.466Z,1016.91
2019-04-29T01:52:59.161Z,1016.93
2019-04-29T01:53:34.425Z,1016.90
2019-04-29T01:54:09.526Z,1016.94
2019-04-29T01:54:44.808Z,1016.93
2019-04-29T01:55:20.012Z,1016.95
2019-04-29T01:55:55.389Z,1016.93
2019-04-29T01:56:30.989Z,1016.93
2019-04-29T01:57:06.378Z,1016.97
2019-04-29T01:57:41.777Z,1016.98
2019-04-29T01:58:16.887Z,1016.97
2019-04-29T01:58:52.288Z,1017.02
2019-04-29T01:59:27.544Z,1016.95
2019-04-29T02:00:02.959Z,1016.97
2019-04-29T02:00:38.024Z,1016.98
2019-04-29T02:01:13.351Z,1016.98
2019-04-29T02:01:48.535Z,1016.97
2019-04-29T02:02:23.741Z,1016.98
2019-04-29T02:02:59.132Z,1016.97
2019-04-29T02:03:34.844Z,1016.97
2019-04-29T02:04:10.112Z,1016.96
2019-04-29T02:04:45.436Z,1017.03
2019-04-29T02:05:20.797Z,1016.98
2019-04-29T02:05:56.079Z,1017.00
2019-04-29T02:06:31.635Z,1017.01
2019-04-29T02:07:07.094Z,1017.02
2019-04-29T02:07:42.665Z,1017.02
2019-04-29T02:08:18.079Z,1017.03
2019-04-29T02:08:53.250Z,1017.03
2019-04-29T02:09:28.859Z,1017.02
2019-04-29T02:10:04.434Z,1017.05
2019-04-29T02:10:39.730Z,1017.05
2019-04-29T02:11:15.085Z,1017.05
2019-04-29T02:11:50.303Z,1017.05
2019-04-29T02:12:25.886Z,1017.05
2019-04-29T02:13:01.298Z,1017.05
2019-04-29T02:13:36.486Z,1017.08
2019-04-29T02:14:12.098Z,1017.04
2019-04-29T02:14:47.055Z,1017.06
2019-04-29T02:15:22.675Z,1017.08
2019-04-29T02:15:58.048Z,1017.10
2019-04-29T02:16:33.468Z,1017.07
2019-04-29T02:17:08.879Z,1017.11
2019-04-29T02:17:44.165Z,1017.10
2019-04-29T02:18:19.553Z,1017.09
2019-04-29T02:18:54.726Z,1017.09
2019-04-29T02:19:29.982Z,1017.12
2019-04-29T02:20:05.186Z,1017.09
2019-04-29T02:20:40.266Z,1017.14
2019-04-29T02:21:15.371Z,1017.11
2019-04-29T02:21:50.573Z,1017.13
2019-04-29T02:22:25.904Z,1017.14
2019-04-29T02:23:01.182Z,1017.14
2019-04-29T02:23:36.491Z,1017.14
2019-04-29T02:24:11.758Z,1017.14
2019-04-29T02:24:47.166Z,1017.16
2019-04-29T02:25:22.258Z,1017.16
2019-04-29T02:25:57.456Z,1017.16
2019-04-29T02:26:32.820Z,1017.17
2019-04-29T02:27:07.985Z,1017.19
2019-04-29T02:27:43.108Z,1017.16
2019-04-29T02:28:18.414Z,1017.18
2019-04-29T02:28:53.484Z,1017.15
2019-04-29T02:29:28.899Z,1017.12
2019-04-29T02:30:04.170Z,1017.17
2019-04-29T02:30:39.671Z,1017.11
2019-04-29T02:31:14.896Z,1017.13
2019-04-29T02:31:50.634Z,1017.13
2019-04-29T02:32:25.903Z,1017.15
2019-04-29T02:33:01.109Z,1017.14
2019-04-29T02:33:36.675Z,1017.16
2019-04-29T02:34:12.178Z,1017.11
2019-04-29T02:34:47.381Z,1017.16
2019-04-29T02:35:22.681Z,1017.15
2019-04-29T02:35:57.744Z,1017.16
2019-04-29T02:36:32.849Z,1017.17
2019-04-29T02:37:08.538Z,1017.20
2019-04-29T02:37:43.756Z,1017.23
2019-04-29T02:38:19.138Z,1017.17
2019-04-29T02:38:54.524Z,1017.18
2019-04-29T02:39:29.799Z,1017.21
2019-04-29T02:40:04.994Z,1017.18
2019-04-29T02:40:40.464Z,1017.19
2019-04-29T02:41:15.759Z,1017.14
2019-04-29T02:41:51.069Z,1017.14
2019-04-29T02:42:26.262Z,1017.15
2019-04-29T02:43:01.737Z,1017.14
2019-04-29T02:43:37.027Z,1017.15
2019-04-29T02:44:12.393Z,1017.14
2019-04-29T02:44:47.689Z,1017.13
2019-04-29T02:45:23.254Z,1017.17
2019-04-29T02:45:58.575Z,1017.16
2019-04-29T02:46:33.638Z,1017.15
2019-04-29T02:47:09.065Z,1017.13
2019-04-29T02:47:44.232Z,1017.09
2019-04-29T02:48:19.347Z,1017.12
2019-04-29T02:48:54.839Z,1017.13
2019-04-29T02:49:30.343Z,1017.12
2019-04-29T02:50:05.422Z,1017.10
2019-04-29T02:50:40.820Z,1017.12
2019-04-29T02:51:16.085Z,1017.10
2019-04-29T02:51:51.332Z,1017.10
2019-04-29T02:52:26.408Z,1017.06
2019-04-29T02:53:01.621Z,1017.11
2019-04-29T02:53:36.885Z,1017.11
2019-04-29T02:54:12.394Z,1017.15
2019-04-29T02:54:47.851Z,1017.10
2019-04-29T02:55:23.277Z,1017.15
2019-04-29T02:55:58.343Z,1017.15
2019-04-29T02:56:33.757Z,1017.16
2019-04-29T02:57:09.250Z,1017.16
2019-04-29T02:57:44.566Z,1017.18
2019-04-29T02:58:20.047Z,1017.16
2019-04-29T02:58:55.340Z,1017.18
2019-04-29T02:59:30.815Z,1017.13
2019-04-29T03:00:06.032Z,1017.14
2019-04-29T03:00:41.102Z,1017.10
2019-04-29T03:01:16.319Z,1017.12
2019-04-29T03:01:52.012Z,1017.16
2019-04-29T03:02:27.105Z,1017.14
2019-04-29T03:03:02.392Z,1017.13
2019-04-29T03:03:37.820Z,1017.12
2019-04-29T03:04:13.300Z,1017.13
2019-04-29T03:04:48.620Z,1017.10
2019-04-29T03:05:23.883Z,1017.13
2019-04-29T03:05:59.181Z,1017.14
2019-04-29T03:06:34.310Z,1017.12
2019-04-29T03:07:09.517Z,1017.14
2019-04-29T03:07:45.094Z,1017.12
2019-04-29T03:08:20.494Z,1017.12
2019-04-29T03:08:55.763Z,1017.10
2019-04-29T03:09:31.385Z,1017.10
2019-04-29T03:10:06.655Z,1017.11
2019-04-29T03:10:41.976Z,1017.12
2019-04-29T03:11:17.149Z,1017.13
2019-04-29T03:11:52.382Z,1017.12
2019-04-29T03:12:27.658Z,1017.08
2019-04-29T03:13:03.068Z,1017.10
2019-04-29T03:13:38.449Z,1017.09
2019-04-29T03:14:13.767Z,1017.08
2019-04-29T03:14:48.843Z,1017.10
2019-04-29T03:15:24.155Z,1017.05
2019-04-29T03:15:59.551Z,1017.09
2019-04-29T03:16:34.769Z,1017.09
2019-04-29T03:17:10.131Z,1017.07
2019-04-29T03:17:45.538Z,1017.08
2019-04-29T03:18:20.604Z,1017.08
2019-04-29T03:18:56.005Z,1017.07
2019-04-29T03:19:31.199Z,1017.09
2019-04-29T03:20:06.494Z,1017.05
2019-04-29T03:20:41.961Z,1017.06
2019-04-29T03:21:17.269Z,1017.04
2019-04-29T03:21:52.578Z,1017.06
2019-04-29T03:22:27.876Z,1017.04
2019-04-29T03:23:03.325Z,1017.05
2019-04-29T03:23:38.617Z,1017.05
2019-04-29T03:24:13.967Z,1017.07
2019-04-29T03:24:49.410Z,1017.07
2019-04-29T03:25:24.684Z,1017.04
2019-04-29T03:25:59.986Z,1017.07
2019-04-29T03:26:35.268Z,1017.04
2019-04-29T03:27:10.774Z,1017.07
2019-04-29T03:27:46.045Z,1017.06
2019-04-29T03:28:21.473Z,1017.03
2019-04-29T03:28:56.961Z,1017.05
2019-04-29T03:29:32.533Z,1017.05
2019-04-29T03:30:07.806Z,1017.05
2019-04-29T03:30:43.114Z,1017.02
2019-04-29T03:31:18.490Z,1017.05
2019-04-29T03:31:53.837Z,1017.07
2019-04-29T03:32:29.503Z,1017.09
2019-04-29T03:33:04.701Z,1017.07
2019-04-29T03:33:40.592Z,1017.07
2019-04-29T03:34:16.113Z,1017.04
2019-04-29T03:34:51.286Z,1017.05
2019-04-29T03:35:26.306Z,1017.02
2019-04-29T03:36:01.362Z,1017.02
2019-04-29T03:36:36.674Z,1017.02
2019-04-29T03:37:12.039Z,1017.02
2019-04-29T03:37:47.651Z,1017.02
2019-04-29T03:38:22.708Z,1017.03
2019-04-29T03:38:58.017Z,1017.05
2019-04-29T03:39:33.283Z,1017.05
2019-04-29T03:40:08.798Z,1017.09
2019-04-29T03:40:44.492Z,1017.10
2019-04-29T03:41:19.795Z,1017.11
2019-04-29T03:41:55.395Z,1017.11
2019-04-29T03:42:30.586Z,1017.07
2019-04-29T03:43:05.970Z,1017.09
2019-04-29T03:43:41.286Z,1017.10
2019-04-29T03:44:16.355Z,1017.10
2019-04-29T03:44:51.479Z,1017.10
2019-04-29T03:45:26.666Z,1017.10
2019-04-29T03:46:01.959Z,1017.09
2019-04-29T03:46:37.337Z,1017.07
2019-04-29T03:47:12.853Z,1017.07
2019-04-29T03:47:48.314Z,1017.06
2019-04-29T03:48:23.636Z,1017.04
2019-04-29T03:48:58.837Z,1017.06
2019-04-29T03:49:34.343Z,1017.06
2019-04-29T03:50:09.504Z,1017.06
2019-04-29T03:50:45.113Z,1016.99
2019-04-29T03:51:20.391Z,1017.02
2019-04-29T03:51:56.143Z,1017.01
2019-04-29T03:52:31.311Z,1017.05
2019-04-29T03:53:06.919Z,1017.04
2019-04-29T03:53:42.195Z,1017.02
2019-04-29T03:54:17.399Z,1017.04
2019-04-29T03:54:52.669Z,1017.03
2019-04-29T03:55:38.930Z,1017.05
2019-04-29T03:56:03.376Z,1017.03
2019-04-29T03:56:39.010Z,1017.07
2019-04-29T03:57:14.198Z,1017.07
2019-04-29T03:57:49.610Z,1017.07
2019-04-29T03:58:25.011Z,1017.07
2019-04-29T03:59:00.620Z,1017.06
2019-04-29T03:59:35.991Z,1017.07
2019-04-29T04:00:11.412Z,1017.08
2019-04-29T04:00:46.976Z,1017.11
2019-04-29T04:01:22.407Z,1017.08
2019-04-29T04:01:57.375Z,1017.10
2019-04-29T04:02:32.805Z,1017.12
2019-04-29T04:03:08.167Z,1017.10
2019-04-29T04:03:43.726Z,1017.13
2019-04-29T04:04:19.218Z,1017.17
2019-04-29T04:04:55.142Z,1017.17
2019-04-29T04:05:30.259Z,1017.16
2019-04-29T04:06:05.350Z,1017.16
2019-04-29T04:06:40.562Z,1017.16
2019-04-29T04:07:15.758Z,1017.20
2019-04-29T04:07:50.932Z,1017.17
2019-04-29T04:08:26.248Z,1017.15
2019-04-29T04:09:05.949Z,1017.17
2019-04-29T04:09:37.038Z,1017.18
2019-04-29T04:10:12.412Z,1017.20
2019-04-29T04:10:47.530Z,1017.13
2019-04-29T04:11:22.906Z,1017.18
2019-04-29T04:11:58.176Z,1017.14
2019-04-29T04:12:33.369Z,1017.14
2019-04-29T04:13:08.764Z,1017.17
2019-04-29T04:13:44.336Z,1017.18
2019-04-29T04:14:19.534Z,1017.18
2019-04-29T04:14:55.101Z,1017.12
2019-04-29T04:15:30.500Z,1017.13
2019-04-29T04:16:05.976Z,1017.14
2019-04-29T04:16:41.180Z,1017.12
2019-04-29T04:17:20.243Z,1017.18
2019-04-29T04:17:51.873Z,1017.16
2019-04-29T04:18:27.143Z,1017.18
2019-04-29T04:19:02.557Z,1017.20
2019-04-29T04:19:37.627Z,1017.24
2019-04-29T04:20:12.831Z,1017.25
2019-04-29T04:20:48.109Z,1017.27
2019-04-29T04:21:24.132Z,1017.28
2019-04-29T04:21:59.419Z,1017.30
2019-04-29T04:22:34.848Z,1017.28
2019-04-29T04:23:10.031Z,1017.27
2019-04-29T04:23:45.360Z,1017.30
2019-04-29T04:24:20.429Z,1017.30
2019-04-29T04:24:55.641Z,1017.31
2019-04-29T04:25:31.053Z,1017.29
2019-04-29T04:26:06.639Z,1017.29
2019-04-29T04:26:41.863Z,1017.29
2019-04-29T04:27:17.324Z,1017.29
2019-04-29T04:27:52.264Z,1017.28
2019-04-29T04:28:27.651Z,1017.26
2019-04-29T04:29:02.935Z,1017.24
2019-04-29T04:29:38.431Z,1017.24
2019-04-29T04:30:13.644Z,1017.23
2019-04-29T04:30:49.076Z,1017.27
2019-04-29T04:31:24.450Z,1017.24
2019-04-29T04:31:59.673Z,1017.27
2019-04-29T04:32:35.181Z,1017.28
2019-04-29T04:33:10.585Z,1017.29
2019-04-29T04:33:45.766Z,1017.30
2019-04-29T04:34:21.295Z,1017.33
2019-04-29T04:34:56.464Z,1017.32
2019-04-29T04:35:31.794Z,1017.33
2019-04-29T04:36:06.878Z,1017.32
2019-04-29T04:36:42.589Z,1017.30
2019-04-29T04:37:17.770Z,1017.35
2019-04-29T04:37:53.364Z,1017.31
2019-04-29T04:38:28.678Z,1017.31
2019-04-29T04:39:03.865Z,1017.31
2019-04-29T04:39:39.156Z,1017.34
2019-04-29T04:40:14.649Z,1017.30
2019-04-29T04:40:50.236Z,1017.31
2019-04-29T04:41:25.556Z,1017.32
2019-04-29T04:42:00.920Z,1017.32
2019-04-29T04:42:36.444Z,1017.32
2019-04-29T04:43:11.707Z,1017.29
2019-04-29T04:43:47.033Z,1017.30
2019-04-29T04:44:22.418Z,1017.34
2019-04-29T04:44:57.608Z,1017.32
2019-04-29T04:45:32.888Z,1017.30
2019-04-29T04:46:08.217Z,1017.32
2019-04-29T04:46:43.700Z,1017.32
2019-04-29T04:47:18.914Z,1017.31
2019-04-29T04:47:54.492Z,1017.31
2019-04-29T04:48:29.591Z,1017.36
2019-04-29T04:49:05.196Z,1017.28
2019-04-29T04:49:40.404Z,1017.35
2019-04-29T04:50:15.801Z,1017.33
2019-04-29T04:50:50.917Z,1017.35
2019-04-29T04:51:25.988Z,1017.37
2019-04-29T04:52:01.424Z,1017.37
2019-04-29T04:52:36.685Z,1017.34
2019-04-29T04:53:11.996Z,1017.34
2019-04-29T04:53:47.463Z,1017.34
2019-04-29T04:54:22.910Z,1017.34
2019-04-29T04:54:58.302Z,1017.37
2019-04-29T04:55:33.507Z,1017.35
2019-04-29T04:56:09.091Z,1017.35
2019-04-29T04:56:44.189Z,1017.33
2019-04-29T04:57:19.464Z,1017.35
2019-04-29T04:57:54.876Z,1017.34
2019-04-29T04:58:30.548Z,1017.39
2019-04-29T04:59:05.839Z,1017.38
2019-04-29T04:59:41.381Z,1017.39
2019-04-29T05:00:19.821Z,1017.35
2019-04-29T05:00:52.006Z,1017.37
2019-04-29T05:01:27.520Z,1017.38
2019-04-29T05:02:02.804Z,1017.38
2019-04-29T05:02:38.320Z,1017.41
2019-04-29T05:03:13.698Z,1017.38
2019-04-29T05:03:48.893Z,1017.42
2019-04-29T05:04:24.292Z,1017.41
2019-04-29T05:04:59.719Z,1017.39
2019-04-29T05:05:35.299Z,1017.43
2019-04-29T05:06:10.494Z,1017.44
2019-04-29T05:06:45.772Z,1017.44
2019-04-29T05:07:21.368Z,1017.45
2019-04-29T05:07:56.854Z,1017.43
2019-04-29T05:08:32.166Z,1017.46
2019-04-29T05:09:07.651Z,1017.47
2019-04-29T05:09:43.284Z,1017.52
2019-04-29T05:10:18.378Z,1017.47
2019-04-29T05:10:53.669Z,1017.48
2019-04-29T05:11:29.034Z,1017.51
2019-04-29T05:12:04.147Z,1017.52
2019-04-29T05:12:39.261Z,1017.55
2019-04-29T05:13:27.338Z,1017.55
2019-04-29T05:13:50.235Z,1017.52
2019-04-29T05:14:25.457Z,1017.51
2019-04-29T05:15:00.824Z,1017.51
2019-04-29T05:15:36.374Z,1017.53
2019-04-29T05:16:11.775Z,1017.52
2019-04-29T05:16:47.089Z,1017.53
2019-04-29T05:17:22.451Z,1017.53
2019-04-29T05:17:57.867Z,1017.55
2019-04-29T05:18:32.939Z,1017.57
2019-04-29T05:19:08.161Z,1017.62
2019-04-29T05:19:43.437Z,1017.60
2019-04-29T05:20:18.856Z,1017.61
2019-04-29T05:20:54.267Z,1017.59
2019-04-29T05:21:29.890Z,1017.59
2019-04-29T05:22:05.391Z,1017.64
2019-04-29T05:22:41.099Z,1017.61
2019-04-29T05:23:16.682Z,1017.61
2019-04-29T05:23:52.311Z,1017.64
2019-04-29T05:24:27.895Z,1017.61
2019-04-29T05:25:03.221Z,1017.67
2019-04-29T05:25:38.692Z,1017.65
2019-04-29T05:26:14.126Z,1017.63
2019-04-29T05:26:49.320Z,1017.68
2019-04-29T05:27:24.645Z,1017.70
2019-04-29T05:28:00.224Z,1017.67
2019-04-29T05:28:35.778Z,1017.67
2019-04-29T05:29:11.170Z,1017.64
2019-04-29T05:29:46.651Z,1017.67
2019-04-29T05:30:21.808Z,1017.67
2019-04-29T05:30:57.274Z,1017.67
2019-04-29T05:31:32.790Z,1017.66
2019-04-29T05:32:08.414Z,1017.67
2019-04-29T05:32:43.609Z,1017.69
2019-04-29T05:33:18.831Z,1017.64
2019-04-29T05:33:54.275Z,1017.65
2019-04-29T05:34:29.788Z,1017.68
2019-04-29T05:35:04.959Z,1017.68
2019-04-29T05:35:40.504Z,1017.65
2019-04-29T05:36:15.605Z,1017.63
2019-04-29T05:36:50.877Z,1017.63
2019-04-29T05:37:26.381Z,1017.65
2019-04-29T05:38:01.610Z,1017.67
2019-04-29T05:38:37.103Z,1017.66
2019-04-29T05:39:12.524Z,1017.65
2019-04-29T05:39:47.822Z,1017.70
2019-04-29T05:40:23.131Z,1017.70
2019-04-29T05:40:58.432Z,1017.70
2019-04-29T05:41:34.828Z,1017.73
2019-04-29T05:42:16.003Z,1017.70
2019-04-29T05:42:48.320Z,1017.73
2019-04-29T05:43:20.031Z,1017.72
2019-04-29T05:43:55.248Z,1017.72
2019-04-29T05:44:30.527Z,1017.72
2019-04-29T05:45:05.731Z,1017.72
2019-04-29T05:45:41.438Z,1017.76
2019-04-29T05:46:17.346Z,1017.73
2019-04-29T05:46:51.870Z,1017.78
2019-04-29T05:47:27.248Z,1017.75
2019-04-29T05:48:02.545Z,1017.79
2019-04-29T05:48:37.970Z,1017.80
2019-04-29T05:49:13.142Z,1017.80
2019-04-29T05:49:48.358Z,1017.83
2019-04-29T05:50:23.349Z,1017.84
2019-04-29T05:50:58.575Z,1017.87
2019-04-29T05:51:34.215Z,1017.86
2019-04-29T05:52:09.625Z,1017.92
2019-04-29T05:52:45.141Z,1017.89
2019-04-29T05:53:20.566Z,1017.89
2019-04-29T05:53:55.949Z,1017.89
2019-04-29T05:54:31.602Z,1017.93
2019-04-29T05:55:09.421Z,1017.92
2019-04-29T05:55:41.780Z,1017.95
2019-04-29T05:56:17.357Z,1017.96
2019-04-29T05:56:52.702Z,1017.99
2019-04-29T05:57:28.122Z,1017.95
2019-04-29T05:58:03.953Z,1017.98
2019-04-29T05:58:39.614Z,1017.93
2019-04-29T05:59:14.299Z,1017.95
2019-04-29T05:59:49.780Z,1017.95
2019-04-29T06:00:25.011Z,1017.99
2019-04-29T06:01:00.058Z,1017.96
2019-04-29T06:01:35.560Z,1017.99
2019-04-29T06:02:10.942Z,1017.98
2019-04-29T06:02:46.453Z,1018.03
2019-04-29T06:03:21.763Z,1018.01
2019-04-29T06:03:57.370Z,1018.04
2019-04-29T06:04:32.662Z,1018.05
2019-04-29T06:05:08.008Z,1018.05
2019-04-29T06:05:43.416Z,1018.09
2019-04-29T06:06:18.759Z,1018.11
2019-04-29T06:06:54.007Z,1018.07
2019-04-29T06:07:29.413Z,1018.09
2019-04-29T06:08:04.896Z,1018.11
2019-04-29T06:08:40.693Z,1018.11
2019-04-29T06:09:16.670Z,1018.12
2019-04-29T06:09:51.363Z,1018.13
2019-04-29T06:10:26.660Z,1018.14
2019-04-29T06:11:01.964Z,1018.13
2019-04-29T06:11:37.462Z,1018.14
2019-04-29T06:12:12.694Z,1018.12
2019-04-29T06:12:48.031Z,1018.12
2019-04-29T06:13:23.330Z,1018.14
2019-04-29T06:13:58.640Z,1018.16
2019-04-29T06:14:34.178Z,1018.16
2019-04-29T06:15:09.575Z,1018.17
2019-04-29T06:15:45.096Z,1018.15
2019-04-29T06:16:21.050Z,1018.19
2019-04-29T06:16:57.505Z,1018.17
2019-04-29T06:17:31.056Z,1018.18
2019-04-29T06:18:06.369Z,1018.14
2019-04-29T06:18:41.786Z,1018.14
2019-04-29T06:19:17.343Z,1018.17
2019-04-29T06:19:52.753Z,1018.15
2019-04-29T06:20:28.279Z,1018.16
2019-04-29T06:21:09.211Z,1018.11
2019-04-29T06:21:39.207Z,1018.13
2019-04-29T06:22:14.596Z,1018.15
2019-04-29T06:22:49.916Z,1018.13
2019-04-29T06:23:25.102Z,1018.17
2019-04-29T06:24:04.481Z,1018.20
2019-04-29T06:24:36.853Z,1018.19
2019-04-29T06:25:11.294Z,1018.18
2019-04-29T06:25:46.712Z,1018.22
2019-04-29T06:26:22.002Z,1018.21
2019-04-29T06:26:57.119Z,1018.23
2019-04-29T06:27:33.367Z,1018.26
2019-04-29T06:28:07.556Z,1018.22
2019-04-29T06:28:43.077Z,1018.21
2019-04-29T06:29:18.344Z,1018.28
2019-04-29T06:29:53.776Z,1018.24
2019-04-29T06:30:29.152Z,1018.23
2019-04-29T06:31:04.996Z,1018.25
2019-04-29T06:31:40.470Z,1018.23
2019-04-29T06:32:15.886Z,1018.26
2019-04-29T06:32:52.235Z,1018.25
2019-04-29T06:33:29.142Z,1018.26
2019-04-29T06:34:05.180Z,1018.27
2019-04-29T06:34:40.166Z,1018.25
2019-04-29T06:35:14.156Z,1018.28
2019-04-29T06:35:49.399Z,1018.29
2019-04-29T06:36:24.864Z,1018.28
2019-04-29T06:36:59.967Z,1018.30
2019-04-29T06:37:35.687Z,1018.29
2019-04-29T06:38:10.906Z,1018.32
2019-04-29T06:38:46.315Z,1018.30
2019-04-29T06:39:21.956Z,1018.29
2019-04-29T06:39:57.545Z,1018.27
2019-04-29T06:40:35.402Z,1018.28
2019-04-29T06:41:09.742Z,1018.28
2019-04-29T06:41:45.196Z,1018.24
2019-04-29T06:42:19.537Z,1018.26
2019-04-29T06:42:55.217Z,1018.30
2019-04-29T06:43:30.684Z,1018.27
2019-04-29T06:44:06.720Z,1018.32
2019-04-29T06:44:40.202Z,1018.28
2019-04-29T06:45:15.728Z,1018.32
2019-04-29T06:45:51.157Z,1018.29
2019-04-29T06:46:26.569Z,1018.29
2019-04-29T06:47:01.870Z,1018.31
2019-04-29T06:47:37.275Z,1018.32
2019-04-29T06:48:12.755Z,1018.31
2019-04-29T06:48:48.265Z,1018.31
2019-04-29T06:49:23.765Z,1018.34
2019-04-29T06:49:58.983Z,1018.32
2019-04-29T06:50:34.323Z,1018.36
2019-04-29T06:51:09.687Z,1018.37
2019-04-29T06:51:45.074Z,1018.36
2019-04-29T06:52:20.407Z,1018.37
2019-04-29T06:52:55.796Z,1018.37
2019-04-29T06:53:31.331Z,1018.39
2019-04-29T06:54:06.727Z,1018.39
2019-04-29T06:54:42.249Z,1018.35
2019-04-29T06:55:17.523Z,1018.39
2019-04-29T06:55:53.339Z,1018.42
2019-04-29T06:56:28.768Z,1018.40
2019-04-29T06:57:04.210Z,1018.40
2019-04-29T06:57:39.886Z,1018.44
2019-04-29T06:58:15.191Z,1018.41
2019-04-29T06:58:50.587Z,1018.41
2019-04-29T06:59:25.717Z,1018.42
2019-04-29T07:00:01.004Z,1018.45
2019-04-29T07:00:36.339Z,1018.42
2019-04-29T07:01:11.931Z,1018.41
2019-04-29T07:01:47.574Z,1018.40
2019-04-29T07:02:23.070Z,1018.39
2019-04-29T07:02:58.469Z,1018.38
2019-04-29T07:03:34.063Z,1018.36
2019-04-29T07:04:09.370Z,1018.35
2019-04-29T07:04:44.852Z,1018.31
2019-04-29T07:05:20.158Z,1018.33
2019-04-29T07:05:55.653Z,1018.33
2019-04-29T07:06:30.891Z,1018.36
2019-04-29T07:07:06.120Z,1018.38
2019-04-29T07:07:41.831Z,1018.36